createdAt,value
2022-10-09T00:01:31.344Z,87.29
2022-10-09T00:04:00.238Z,87.46
2022-10-09T00:06:31.709Z,87.51
2022-10-09T00:09:02.249Z,87.73
2022-10-09T00:11:32.301Z,87.78
2022-10-09T00:14:01.425Z,87.14
2022-10-09T00:16:29.496Z,87.10
2022-10-09T00:18:58.173Z,87.49
2022-10-09T00:21:29.430Z,87.29
2022-10-09T00:24:00.009Z,86.71
2022-10-09T00:26:28.876Z,86.64
2022-10-09T00:28:57.677Z,86.50
2022-10-09T00:31:25.741Z,86.39
2022-10-09T00:33:53.633Z,86.35
2022-10-09T00:36:24.081Z,86.42
2022-10-09T00:38:54.568Z,86.53
2022-10-09T00:41:27.804Z,86.58
2022-10-09T00:44:04.672Z,86.74
2022-10-09T00:46:41.675Z,86.86
2022-10-09T00:49:22.118Z,86.83
2022-10-09T00:51:51.501Z,87.01
2022-10-09T00:54:24.358Z,87.19
2022-10-09T00:56:52.850Z,87.38
2022-10-09T00:59:22.054Z,87.36
2022-10-09T01:01:50.167Z,87.41
2022-10-09T01:04:18.106Z,87.36
2022-10-09T01:07:19.156Z,87.33
2022-10-09T01:10:18.333Z,87.81
2022-10-09T01:13:04.136Z,87.80
2022-10-09T01:15:58.972Z,87.99
2022-10-09T01:18:49.425Z,88.25
2022-10-09T01:21:21.336Z,88.22
2022-10-09T01:23:58.582Z,88.24
2022-10-09T01:26:45.483Z,88.49
2022-10-09T01:29:15.526Z,88.46
2022-10-09T01:31:47.478Z,88.72
2022-10-09T01:34:17.923Z,88.84
2022-10-09T01:36:46.987Z,88.95
2022-10-09T01:39:21.507Z,88.95
2022-10-09T01:41:51.172Z,89.03
2022-10-09T01:44:29.014Z,89.26
2022-10-09T01:46:57.408Z,89.03
2022-10-09T01:49:37.701Z,89.49
2022-10-09T01:52:14.618Z,89.39
2022-10-09T01:55:01.374Z,89.27
2022-10-09T01:57:37.392Z,89.14
2022-10-09T02:00:09.739Z,89.61
2022-10-09T02:02:42.733Z,89.34
2022-10-09T02:05:15.750Z,89.35
2022-10-09T02:07:43.929Z,89.67
2022-10-09T02:10:13.178Z,89.74
2022-10-09T02:12:53.890Z,90.31
2022-10-09T02:15:26.567Z,90.31
2022-10-09T02:18:03.141Z,90.53
2022-10-09T02:20:35.545Z,90.39
2022-10-09T02:23:07.481Z,91.04
2022-10-09T02:25:35.961Z,91.28
2022-10-09T02:28:04.723Z,90.99
2022-10-09T02:30:57.797Z,91.14
2022-10-09T02:33:32.586Z,91.52
2022-10-09T02:36:02.064Z,91.72
2022-10-09T02:38:30.026Z,92.03
2022-10-09T02:40:59.687Z,91.93
2022-10-09T02:43:28.689Z,92.02
2022-10-09T02:45:56.498Z,91.92
2022-10-09T02:48:24.374Z,92.42
2022-10-09T02:50:52.178Z,92.78
2022-10-09T02:53:20.005Z,92.93
2022-10-09T02:55:47.865Z,93.41
2022-10-09T02:58:15.777Z,93.33
2022-10-09T03:00:43.645Z,93.29
2022-10-09T03:03:11.488Z,93.55
2022-10-09T03:05:39.346Z,93.44
2022-10-09T03:08:07.213Z,93.40
2022-10-09T03:10:37.482Z,93.26
2022-10-09T03:13:06.630Z,93.69
2022-10-09T03:15:36.357Z,93.58
2022-10-09T03:18:04.621Z,93.42
2022-10-09T03:20:32.711Z,93.52
2022-10-09T03:23:00.544Z,93.09
2022-10-09T03:25:28.459Z,93.11
2022-10-09T03:27:56.329Z,93.01
2022-10-09T03:30:24.188Z,93.20
2022-10-09T03:32:52.006Z,93.23
2022-10-09T03:35:19.960Z,93.24
2022-10-09T03:37:47.814Z,93.22
2022-10-09T03:40:15.689Z,93.05
2022-10-09T03:42:43.488Z,92.84
2022-10-09T03:45:11.335Z,93.02
2022-10-09T03:47:39.175Z,92.84
2022-10-09T03:50:07.534Z,92.60
2022-10-09T03:52:36.531Z,92.67
2022-10-09T03:55:04.887Z,92.69
2022-10-09T03:57:33.319Z,92.62
2022-10-09T04:00:01.117Z,92.29
2022-10-09T04:02:29.006Z,92.44
2022-10-09T04:04:56.862Z,92.54
2022-10-09T04:07:24.775Z,92.65
2022-10-09T04:09:52.605Z,92.43
2022-10-09T04:12:20.414Z,92.53
2022-10-09T04:14:48.273Z,92.24
2022-10-09T04:17:16.333Z,92.57
2022-10-09T04:19:44.129Z,92.60
2022-10-09T04:22:11.938Z,92.42
2022-10-09T04:24:39.750Z,92.59
2022-10-09T04:27:07.844Z,92.84
2022-10-09T04:29:35.675Z,92.75
2022-10-09T04:32:03.574Z,92.90
2022-10-09T04:34:31.428Z,92.88
2022-10-09T04:36:59.352Z,93.05
2022-10-09T04:39:27.228Z,93.20
2022-10-09T04:41:55.041Z,93.50
2022-10-09T04:44:22.883Z,93.31
2022-10-09T04:46:51.798Z,93.22
2022-10-09T04:49:19.679Z,93.29
2022-10-09T04:51:47.565Z,93.27
2022-10-09T04:54:15.382Z,93.55
2022-10-09T04:56:43.250Z,93.17
2022-10-09T04:59:11.068Z,93.58
2022-10-09T05:01:38.930Z,93.01
2022-10-09T05:04:06.901Z,92.98
2022-10-09T05:06:36.910Z,93.19
2022-10-09T05:09:04.845Z,93.43
2022-10-09T05:11:32.706Z,93.21
2022-10-09T05:14:00.593Z,93.61
2022-10-09T05:16:29.447Z,93.16
2022-10-09T05:18:59.362Z,93.73
2022-10-09T05:21:28.785Z,93.82
2022-10-09T05:23:57.781Z,93.63
2022-10-09T05:26:26.930Z,93.77
2022-10-09T05:28:55.169Z,93.92
2022-10-09T05:31:26.211Z,93.99
2022-10-09T05:33:56.340Z,94.52
2022-10-09T05:36:24.389Z,94.53
2022-10-09T05:38:52.851Z,94.89
2022-10-09T05:41:20.748Z,94.49
2022-10-09T05:43:49.976Z,94.43
2022-10-09T05:46:20.415Z,94.75
2022-10-09T05:49:05.634Z,94.40
2022-10-09T05:51:38.770Z,94.74
2022-10-09T05:54:07.306Z,94.74
2022-10-09T05:56:37.448Z,95.15
2022-10-09T05:59:10.630Z,95.04
2022-10-09T06:01:41.103Z,94.99
2022-10-09T06:04:13.717Z,94.88
2022-10-09T06:06:41.985Z,95.08
2022-10-09T06:09:11.717Z,94.93
2022-10-09T06:11:40.998Z,94.84
2022-10-09T06:14:10.804Z,94.79
2022-10-09T06:16:41.956Z,94.82
2022-10-09T06:19:15.558Z,94.67
2022-10-09T06:21:45.180Z,94.77
2022-10-09T06:24:22.247Z,94.93
2022-10-09T06:26:53.727Z,94.74
2022-10-09T06:29:21.711Z,94.63
2022-10-09T06:31:49.562Z,94.81
2022-10-09T06:34:17.533Z,94.75
2022-10-09T06:36:45.421Z,94.70
2022-10-09T06:39:13.345Z,94.67
2022-10-09T06:41:41.473Z,95.04
2022-10-09T06:44:23.516Z,94.47
2022-10-09T06:46:51.508Z,94.00
2022-10-09T06:49:19.356Z,94.16
2022-10-09T06:51:47.273Z,94.04
2022-10-09T06:54:17.499Z,93.90
2022-10-09T06:56:45.604Z,93.92
2022-10-09T06:59:13.912Z,93.12
2022-10-09T07:01:41.883Z,93.00
2022-10-09T07:04:13.275Z,93.45
2022-10-09T07:06:44.208Z,92.54
2022-10-09T07:09:14.465Z,92.47
2022-10-09T07:11:45.738Z,92.06
2022-10-09T07:14:16.030Z,91.86
2022-10-09T07:16:46.605Z,91.15
2022-10-09T07:19:16.057Z,90.73
2022-10-09T07:21:46.386Z,89.74
2022-10-09T07:24:15.115Z,89.03
2022-10-09T07:26:45.576Z,89.44
2022-10-09T07:29:15.375Z,89.64
2022-10-09T07:31:44.061Z,89.39
2022-10-09T07:34:11.962Z,87.99
2022-10-09T07:36:39.797Z,88.66
2022-10-09T07:39:07.716Z,89.21
2022-10-09T07:41:35.679Z,88.82
2022-10-09T07:44:03.827Z,88.88
2022-10-09T07:46:34.056Z,87.91
2022-10-09T07:49:03.120Z,88.23
2022-10-09T07:51:32.150Z,88.46
2022-10-09T07:54:02.129Z,87.98
2022-10-09T07:56:35.900Z,86.42
2022-10-09T07:59:06.876Z,86.30
2022-10-09T08:01:36.521Z,85.43
2022-10-09T08:04:05.531Z,85.18
2022-10-09T08:06:34.359Z,86.14
2022-10-09T08:09:05.430Z,85.49
2022-10-09T08:11:33.838Z,84.68
2022-10-09T08:14:01.920Z,84.58
2022-10-09T08:16:31.982Z,84.64
2022-10-09T08:19:01.386Z,84.90
2022-10-09T08:21:30.201Z,83.85
2022-10-09T08:23:59.504Z,83.17
2022-10-09T08:26:29.633Z,82.17
2022-10-09T08:29:03.344Z,82.18
2022-10-09T08:31:32.194Z,82.31
2022-10-09T08:34:02.980Z,82.05
2022-10-09T08:36:31.820Z,82.44
2022-10-09T08:39:00.012Z,80.83
2022-10-09T08:41:46.787Z,80.58
2022-10-09T08:44:38.183Z,80.76
2022-10-09T08:47:09.657Z,80.31
2022-10-09T08:49:55.012Z,80.25
2022-10-09T08:52:49.126Z,79.68
2022-10-09T08:55:27.329Z,79.27
2022-10-09T08:57:57.460Z,78.45
2022-10-09T09:00:31.421Z,76.22
2022-10-09T09:03:33.522Z,74.96
2022-10-09T09:06:31.472Z,76.19
2022-10-09T09:09:21.660Z,75.48
2022-10-09T09:12:08.391Z,74.37
2022-10-09T09:14:45.628Z,73.48
2022-10-09T09:17:46.686Z,73.89
2022-10-09T09:20:24.012Z,73.16
2022-10-09T09:22:52.177Z,70.66
2022-10-09T09:25:26.274Z,71.20
2022-10-09T09:27:59.046Z,71.19
2022-10-09T09:30:44.376Z,71.65
2022-10-09T09:33:33.837Z,71.41
2022-10-09T09:36:04.062Z,72.38
2022-10-09T09:38:32.017Z,72.75
2022-10-09T09:40:59.990Z,70.88
2022-10-09T09:43:28.023Z,70.79
2022-10-09T09:45:58.915Z,70.80
2022-10-09T09:48:37.821Z,70.40
2022-10-09T09:51:33.048Z,70.08
2022-10-09T09:54:08.099Z,69.31
2022-10-09T09:57:11.174Z,70.03
2022-10-09T09:59:36.882Z,70.00
2022-10-09T10:02:12.624Z,70.22
2022-10-09T10:04:53.542Z,69.27
2022-10-09T10:07:36.292Z,68.97
2022-10-09T10:10:13.747Z,68.07
2022-10-09T10:12:59.975Z,68.79
2022-10-09T10:15:33.391Z,68.16
2022-10-09T10:18:07.369Z,68.00
2022-10-09T10:20:46.949Z,68.42
2022-10-09T10:23:39.629Z,67.77
2022-10-09T10:26:28.736Z,68.39
2022-10-09T10:29:05.869Z,69.11
2022-10-09T10:32:09.714Z,68.30
2022-10-09T10:34:45.970Z,68.86
2022-10-09T10:37:13.983Z,69.25
2022-10-09T10:39:48.900Z,69.09
2022-10-09T10:42:25.100Z,67.73
2022-10-09T10:45:09.720Z,63.61
2022-10-09T10:47:40.003Z,64.24
2022-10-09T10:50:15.619Z,63.83
2022-10-09T10:53:25.139Z,64.54
2022-10-09T10:55:59.283Z,64.42
2022-10-09T10:58:47.950Z,64.45
2022-10-09T11:01:57.740Z,65.70
2022-10-09T11:05:07.127Z,67.04
2022-10-09T11:08:00.078Z,65.18
2022-10-09T11:10:36.794Z,64.34
2022-10-09T11:13:15.714Z,61.88
2022-10-09T11:16:16.551Z,63.26
2022-10-09T11:18:56.892Z,63.47
2022-10-09T11:21:47.804Z,63.68
2022-10-09T11:24:53.827Z,65.07
2022-10-09T11:27:33.273Z,65.55
2022-10-09T11:30:13.466Z,64.50
2022-10-09T11:33:03.460Z,61.08
2022-10-09T11:35:42.369Z,60.00
2022-10-09T11:38:27.189Z,60.87
2022-10-09T11:40:57.508Z,60.49
2022-10-09T11:43:25.417Z,61.95
2022-10-09T11:45:58.565Z,61.61
2022-10-09T11:48:42.860Z,63.11
2022-10-09T11:51:13.494Z,62.12
2022-10-09T11:53:42.996Z,58.97
2022-10-09T11:56:23.472Z,59.33
2022-10-09T11:59:00.529Z,59.11
2022-10-09T12:01:37.141Z,58.53
2022-10-09T12:04:32.285Z,57.68
2022-10-09T12:07:09.678Z,59.01
2022-10-09T12:09:43.609Z,59.48
2022-10-09T12:12:17.704Z,60.36
2022-10-09T12:14:48.390Z,58.53
2022-10-09T12:17:18.500Z,58.45
2022-10-09T12:19:46.481Z,58.12
2022-10-09T12:22:25.419Z,57.72
2022-10-09T12:24:56.552Z,55.07
2022-10-09T12:27:32.110Z,54.68
2022-10-09T12:30:18.327Z,54.99
2022-10-09T12:33:01.283Z,54.89
2022-10-09T12:35:35.058Z,54.03
2022-10-09T12:38:03.384Z,55.82
2022-10-09T12:40:33.676Z,56.73
2022-10-09T12:43:08.115Z,57.07
2022-10-09T12:45:43.518Z,57.01
2022-10-09T12:48:13.542Z,56.51
2022-10-09T12:50:41.364Z,55.94
2022-10-09T12:53:15.350Z,55.31
2022-10-09T12:56:03.572Z,54.02
2022-10-09T12:58:36.579Z,52.75
2022-10-09T13:01:07.489Z,54.61
2022-10-09T13:03:38.076Z,53.35
2022-10-09T13:06:13.351Z,52.95
2022-10-09T13:08:42.104Z,51.47
2022-10-09T13:11:18.007Z,51.58
2022-10-09T13:13:51.575Z,51.49
2022-10-09T13:16:20.648Z,49.58
2022-10-09T13:18:59.577Z,48.10
2022-10-09T13:21:32.800Z,48.07
2022-10-09T13:24:10.878Z,47.54
2022-10-09T13:26:42.802Z,47.40
2022-10-09T13:29:12.548Z,47.61
2022-10-09T13:31:43.916Z,45.22
2022-10-09T13:34:13.720Z,46.49
2022-10-09T13:36:41.931Z,47.62
2022-10-09T13:39:17.341Z,48.03
2022-10-09T13:41:48.892Z,47.60
2022-10-09T13:44:16.762Z,48.53
2022-10-09T13:46:44.649Z,47.36
2022-10-09T13:49:12.562Z,48.51
2022-10-09T13:51:40.421Z,45.96
2022-10-09T13:54:08.275Z,45.11
2022-10-09T13:56:36.113Z,46.52
2022-10-09T13:59:03.986Z,46.63
2022-10-09T14:01:31.867Z,44.74
2022-10-09T14:03:59.712Z,44.80
2022-10-09T14:06:27.591Z,44.09
2022-10-09T14:08:57.456Z,44.54
2022-10-09T14:11:25.301Z,42.54
2022-10-09T14:13:53.168Z,42.92
2022-10-09T14:16:21.100Z,40.79
2022-10-09T14:18:49.033Z,38.88
2022-10-09T14:21:16.895Z,39.17
2022-10-09T14:23:44.791Z,40.98
2022-10-09T14:26:12.702Z,40.21
2022-10-09T14:28:40.872Z,39.32
2022-10-09T14:31:08.763Z,39.69
2022-10-09T14:33:36.700Z,41.25
2022-10-09T14:36:09.561Z,40.25
2022-10-09T14:38:39.209Z,40.43
2022-10-09T14:41:09.293Z,40.48
2022-10-09T14:43:37.154Z,40.64
2022-10-09T14:46:16.903Z,41.24
2022-10-09T14:48:46.085Z,41.64
2022-10-09T14:51:17.275Z,41.89
2022-10-09T14:53:46.146Z,41.76
2022-10-09T14:56:20.794Z,40.73
2022-10-09T14:58:48.714Z,40.77
2022-10-09T15:01:19.242Z,41.38
2022-10-09T15:03:48.400Z,40.44
2022-10-09T15:06:20.533Z,40.24
2022-10-09T15:08:48.421Z,40.73
2022-10-09T15:11:16.852Z,41.70
2022-10-09T15:13:57.797Z,42.12
2022-10-09T15:16:25.784Z,42.33
2022-10-09T15:18:55.314Z,41.72
2022-10-09T15:21:28.751Z,41.11
2022-10-09T15:23:58.264Z,40.64
2022-10-09T15:26:29.124Z,40.47
2022-10-09T15:28:57.867Z,40.72
2022-10-09T15:31:31.821Z,41.16
2022-10-09T15:34:03.584Z,41.68
2022-10-09T15:36:35.647Z,41.50
2022-10-09T15:39:06.182Z,41.47
2022-10-09T15:41:36.950Z,42.06
2022-10-09T15:44:16.600Z,41.80
2022-10-09T15:46:45.829Z,42.31
2022-10-09T15:49:13.932Z,42.08
2022-10-09T15:51:41.857Z,43.57
2022-10-09T15:54:11.591Z,44.45
2022-10-09T15:56:40.530Z,45.26
2022-10-09T15:59:16.970Z,46.09
2022-10-09T16:01:45.048Z,46.58
2022-10-09T16:04:13.208Z,46.63
2022-10-09T16:06:41.093Z,46.94
2022-10-09T16:09:09.118Z,47.24
2022-10-09T16:11:37.151Z,47.79
2022-10-09T16:14:05.186Z,48.47
2022-10-09T16:16:33.025Z,48.57
2022-10-09T16:19:03.248Z,48.89
2022-10-09T16:21:31.872Z,48.61
2022-10-09T16:24:00.410Z,49.16
2022-10-09T16:26:29.856Z,49.57
2022-10-09T16:29:00.457Z,50.06
2022-10-09T16:31:31.742Z,50.09
2022-10-09T16:34:02.488Z,50.62
2022-10-09T16:36:30.420Z,51.05
2022-10-09T16:38:58.723Z,51.83
2022-10-09T16:41:30.286Z,52.46
2022-10-09T16:44:00.401Z,52.68
2022-10-09T16:49:03.630Z,53.85
2022-10-09T16:51:36.348Z,54.02
2022-10-09T16:54:05.960Z,54.37
2022-10-09T16:56:38.578Z,55.03
2022-10-09T16:59:11.990Z,55.15
2022-10-09T17:01:45.196Z,55.43
2022-10-09T17:04:14.572Z,55.65
2022-10-09T17:06:46.749Z,56.23
2022-10-09T17:09:15.309Z,56.33
2022-10-09T17:11:43.920Z,56.71
2022-10-09T17:14:13.114Z,57.01
2022-10-09T17:16:42.389Z,57.22
2022-10-09T17:19:10.785Z,57.43
2022-10-09T17:21:38.827Z,57.56
2022-10-09T17:24:07.831Z,57.94
2022-10-09T17:26:36.223Z,58.65
2022-10-09T17:29:04.908Z,58.33
2022-10-09T17:31:34.623Z,58.17
2022-10-09T17:34:04.421Z,58.80
2022-10-09T17:36:36.314Z,58.87
2022-10-09T17:39:06.287Z,59.53
2022-10-09T17:41:35.070Z,60.27
2022-10-09T17:44:03.301Z,61.08
2022-10-09T17:46:31.405Z,61.52
2022-10-09T17:49:00.580Z,61.09
2022-10-09T17:51:31.703Z,61.89
2022-10-09T17:54:08.289Z,62.17
2022-10-09T17:56:41.354Z,62.16
2022-10-09T17:59:09.581Z,62.53
2022-10-09T18:01:38.326Z,62.55
2022-10-09T18:04:06.447Z,62.63
2022-10-09T18:06:35.827Z,62.75
2022-10-09T18:09:04.705Z,63.08
2022-10-09T18:11:32.791Z,64.55
2022-10-09T18:14:00.866Z,66.45
2022-10-09T18:16:36.193Z,68.02
2022-10-09T18:19:14.626Z,68.48
2022-10-09T18:21:48.324Z,69.46
2022-10-09T18:24:16.409Z,69.75
2022-10-09T18:26:45.783Z,70.24
2022-10-09T18:29:13.911Z,70.58
2022-10-09T18:31:41.806Z,70.17
2022-10-09T18:34:11.447Z,69.80
2022-10-09T18:36:39.511Z,69.53
2022-10-09T18:39:10.248Z,69.61
2022-10-09T18:41:39.034Z,69.72
2022-10-09T18:44:12.705Z,69.97
2022-10-09T18:46:44.167Z,69.40
2022-10-09T18:49:16.471Z,69.00
2022-10-09T18:51:46.626Z,68.96
2022-10-09T18:54:21.346Z,69.14
2022-10-09T18:56:49.255Z,70.35
2022-10-09T18:59:21.296Z,69.72
2022-10-09T19:01:49.341Z,69.48
2022-10-09T19:04:17.417Z,69.81
2022-10-09T19:06:45.695Z,71.17
2022-10-09T19:09:14.321Z,73.49
2022-10-09T19:11:44.559Z,73.89
2022-10-09T19:14:13.473Z,74.90
2022-10-09T19:16:41.970Z,74.82
2022-10-09T19:19:09.900Z,74.65
2022-10-09T19:21:39.619Z,74.95
2022-10-09T19:24:07.962Z,74.28
2022-10-09T19:26:35.963Z,74.97
2022-10-09T19:29:06.651Z,75.85
2022-10-09T19:31:36.308Z,76.54
2022-10-09T19:34:05.408Z,75.69
2022-10-09T19:36:37.085Z,77.09
2022-10-09T19:39:08.006Z,76.85
2022-10-09T19:41:36.669Z,77.51
2022-10-09T19:44:04.610Z,78.06
2022-10-09T19:46:32.571Z,78.35
2022-10-09T19:49:00.946Z,78.03
2022-10-09T19:51:29.123Z,78.18
2022-10-09T19:53:59.011Z,77.96
2022-10-09T19:56:33.113Z,77.82
2022-10-09T19:59:03.455Z,78.07
2022-10-09T20:01:33.187Z,78.03
2022-10-09T20:04:07.918Z,77.43
2022-10-09T20:06:36.676Z,77.20
2022-10-09T20:09:06.464Z,77.00
2022-10-09T20:11:35.045Z,77.39
2022-10-09T20:14:04.233Z,77.46
2022-10-09T20:16:33.653Z,77.64
2022-10-09T20:19:02.751Z,77.74
2022-10-09T20:21:32.596Z,77.40
2022-10-09T20:24:01.459Z,77.63
2022-10-09T20:26:31.541Z,77.54
2022-10-09T20:28:59.645Z,77.81
2022-10-09T20:31:28.179Z,77.96
2022-10-09T20:33:56.190Z,79.00
2022-10-09T20:36:31.635Z,78.58
2022-10-09T20:39:02.724Z,79.54
2022-10-09T20:41:31.573Z,79.27
2022-10-09T20:44:01.551Z,79.12
2022-10-09T20:46:31.967Z,79.09
2022-10-09T20:49:01.604Z,79.80
2022-10-09T20:51:29.591Z,79.72
2022-10-09T20:53:59.993Z,80.43
2022-10-09T20:56:30.638Z,80.21
2022-10-09T20:58:59.022Z,79.89
2022-10-09T21:01:28.939Z,79.55
2022-10-09T21:03:59.382Z,79.36
2022-10-09T21:06:27.396Z,79.00
2022-10-09T21:08:57.579Z,78.80
2022-10-09T21:11:25.730Z,78.79
2022-10-09T21:13:54.026Z,78.78
2022-10-09T21:16:23.876Z,78.67
2022-10-09T21:18:58.669Z,78.66
2022-10-09T21:21:29.462Z,78.60
2022-10-09T21:23:59.573Z,78.65
2022-10-09T21:26:29.534Z,78.92
2022-10-09T21:28:59.974Z,78.78
2022-10-09T21:31:30.552Z,78.70
2022-10-09T21:34:01.360Z,78.85
2022-10-09T21:37:02.226Z,79.12
2022-10-09T21:39:31.577Z,79.05
2022-10-09T21:41:59.391Z,79.48
2022-10-09T21:44:27.853Z,79.36
2022-10-09T21:46:56.286Z,79.43
2022-10-09T21:49:27.308Z,80.56
2022-10-09T21:51:56.033Z,81.46
2022-10-09T21:54:24.338Z,81.08
2022-10-09T21:56:52.381Z,82.00
2022-10-09T21:59:20.310Z,82.47
2022-10-09T22:01:48.177Z,82.13
2022-10-09T22:04:16.167Z,82.39
2022-10-09T22:06:44.048Z,82.29
2022-10-09T22:09:12.597Z,83.28
2022-10-09T22:11:40.472Z,83.07
2022-10-09T22:14:08.330Z,82.73
2022-10-09T22:16:36.332Z,83.01
2022-10-09T22:19:04.232Z,82.78
2022-10-09T22:21:32.352Z,82.53
2022-10-09T22:24:01.283Z,82.37
2022-10-09T22:26:29.186Z,83.04
2022-10-09T22:28:56.972Z,83.08
2022-10-09T22:31:27.048Z,83.11
2022-10-09T22:33:57.952Z,82.96
2022-10-09T22:36:29.723Z,82.76
2022-10-09T22:39:01.595Z,82.77
2022-10-09T22:41:30.890Z,82.97
2022-10-09T22:44:00.748Z,82.97
2022-10-09T22:46:31.834Z,82.94
2022-10-09T22:49:00.851Z,82.89
2022-10-09T22:51:29.831Z,82.71
2022-10-09T22:53:59.431Z,82.82
2022-10-09T22:56:32.701Z,83.05
2022-10-09T22:59:01.007Z,82.89
2022-10-09T23:01:34.093Z,83.12
2022-10-09T23:04:09.245Z,83.20
2022-10-09T23:06:37.969Z,83.50
2022-10-09T23:09:07.745Z,83.56
2022-10-09T23:11:36.002Z,83.46
2022-10-09T23:14:04.784Z,83.74
2022-10-09T23:16:32.851Z,83.61
2022-10-09T23:19:06.084Z,83.44
2022-10-09T23:21:35.346Z,83.73
2022-10-09T23:24:06.499Z,83.75
2022-10-09T23:26:39.462Z,83.74
2022-10-09T23:29:12.560Z,83.69
2022-10-09T23:31:40.552Z,84.14
2022-10-09T23:34:08.376Z,83.96
2022-10-09T23:36:41.332Z,84.47
2022-10-09T23:39:09.199Z,84.02
2022-10-09T23:41:37.971Z,84.48
2022-10-09T23:44:05.852Z,84.91
2022-10-09T23:46:34.051Z,84.67
2022-10-09T23:49:02.381Z,84.55
2022-10-09T23:51:31.187Z,84.36
2022-10-09T23:53:59.785Z,84.89
2022-10-09T23:56:30.264Z,84.70
2022-10-09T23:59:00.083Z,84.92
